sensor_id;sensor_type;location;lat;lon;timestamp;P1;durP1;ratioP1;P2;durP2;ratioP2
25663;SDS011;13522;50.018;20.014;2023-03-01T00:01:58;66.33;;;34.95;;
25663;SDS011;13522;50.018;20.014;2023-03-01T00:05:11;66.70;;;33.38;;
25663;SDS011;13522;50.018;20.014;2023-03-01T00:08:23;58.20;;;31.98;;
25663;SDS011;13522;50.018;20.014;2023-03-01T00:11:38;61.88;;;32.20;;
25663;SDS011;13522;50.018;20.014;2023-03-01T00:14:50;58.10;;;31.60;;
25663;SDS011;13522;50.018;20.014;2023-03-01T00:18:02;57.93;;;32.13;;
25663;SDS011;13522;50.018;20.014;2023-03-01T00:21:14;58.13;;;31.03;;
25663;SDS011;13522;50.018;20.014;2023-03-01T00:24:27;53.58;;;31.28;;
25663;SDS011;13522;50.018;20.014;2023-03-01T00:27:40;58.85;;;31.78;;
25663;SDS011;13522;50.018;20.014;2023-03-01T00:30:53;60.85;;;32.65;;
25663;SDS011;13522;50.018;20.014;2023-03-01T00:34:06;59.13;;;31.78;;
25663;SDS011;13522;50.018;20.014;2023-03-01T00:37:19;56.63;;;30.18;;
25663;SDS011;13522;50.018;20.014;2023-03-01T00:40:32;49.40;;;27.63;;
25663;SDS011;13522;50.018;20.014;2023-03-01T00:43:46;55.08;;;31.25;;
25663;SDS011;13522;50.018;20.014;2023-03-01T00:46:59;55.40;;;29.93;;
25663;SDS011;13522;50.018;20.014;2023-03-01T00:50:11;62.83;;;32.28;;
25663;SDS011;13522;50.018;20.014;2023-03-01T00:53:24;57.78;;;31.53;;
25663;SDS011;13522;50.018;20.014;2023-03-01T00:56:36;56.60;;;30.18;;
25663;SDS011;13522;50.018;20.014;2023-03-01T00:59:49;59.40;;;32.53;;
25663;SDS011;13522;50.018;20.014;2023-03-01T01:03:02;60.83;;;32.63;;
25663;SDS011;13522;50.018;20.014;2023-03-01T01:06:15;59.60;;;34.38;;
25663;SDS011;13522;50.018;20.014;2023-03-01T01:09:30;60.77;;;34.50;;
25663;SDS011;13522;50.018;20.014;2023-03-01T01:12:42;67.60;;;32.85;;
25663;SDS011;13522;50.018;20.014;2023-03-01T01:15:55;88.55;;;46.38;;
25663;SDS011;13522;50.018;20.014;2023-03-01T01:19:13;104.75;;;52.90;;
25663;SDS011;13522;50.018;20.014;2023-03-01T01:22:26;91.28;;;48.53;;
25663;SDS011;13522;50.018;20.014;2023-03-01T01:25:38;102.88;;;51.15;;
25663;SDS011;13522;50.018;20.014;2023-03-01T01:28:50;74.80;;;40.35;;
25663;SDS011;13522;50.018;20.014;2023-03-01T01:32:03;71.25;;;38.05;;
25663;SDS011;13522;50.018;20.014;2023-03-01T01:35:16;66.48;;;37.10;;
25663;SDS011;13522;50.018;20.014;2023-03-01T01:38:28;65.10;;;35.78;;
25663;SDS011;13522;50.018;20.014;2023-03-01T01:41:41;65.98;;;37.38;;
25663;SDS011;13522;50.018;20.014;2023-03-01T01:48:46;68.68;;;37.93;;
25663;SDS011;13522;50.018;20.014;2023-03-01T01:52:04;77.40;;;40.10;;
25663;SDS011;13522;50.018;20.014;2023-03-01T01:55:22;68.40;;;38.75;;
25663;SDS011;13522;50.018;20.014;2023-03-01T01:58:37;71.70;;;39.73;;
25663;SDS011;13522;50.018;20.014;2023-03-01T02:01:51;77.50;;;42.38;;
25663;SDS011;13522;50.018;20.014;2023-03-01T02:05:06;74.55;;;40.25;;
25663;SDS011;13522;50.018;20.014;2023-03-01T02:08:25;82.60;;;41.85;;
25663;SDS011;13522;50.018;20.014;2023-03-01T02:11:39;76.80;;;40.67;;
25663;SDS011;13522;50.018;20.014;2023-03-01T02:14:53;82.88;;;42.00;;
25663;SDS011;13522;50.018;20.014;2023-03-01T02:18:07;76.90;;;41.53;;
25663;SDS011;13522;50.018;20.014;2023-03-01T02:21:37;82.13;;;42.57;;
25663;SDS011;13522;50.018;20.014;2023-03-01T02:24:57;80.88;;;40.98;;
25663;SDS011;13522;50.018;20.014;2023-03-01T02:31:51;77.43;;;43.20;;
25663;SDS011;13522;50.018;20.014;2023-03-01T02:35:07;81.25;;;41.50;;
25663;SDS011;13522;50.018;20.014;2023-03-01T02:38:22;80.65;;;42.85;;
25663;SDS011;13522;50.018;20.014;2023-03-01T02:41:36;82.95;;;41.28;;
25663;SDS011;13522;50.018;20.014;2023-03-01T02:44:53;83.45;;;44.50;;
25663;SDS011;13522;50.018;20.014;2023-03-01T02:48:06;79.88;;;44.50;;
25663;SDS011;13522;50.018;20.014;2023-03-01T02:51:26;92.48;;;44.60;;
25663;SDS011;13522;50.018;20.014;2023-03-01T02:54:50;90.10;;;45.65;;
25663;SDS011;13522;50.018;20.014;2023-03-01T02:58:09;90.40;;;46.58;;
25663;SDS011;13522;50.018;20.014;2023-03-01T03:01:21;87.80;;;46.45;;
25663;SDS011;13522;50.018;20.014;2023-03-01T03:04:35;91.98;;;46.33;;
25663;SDS011;13522;50.018;20.014;2023-03-01T03:07:48;93.15;;;45.85;;
25663;SDS011;13522;50.018;20.014;2023-03-01T03:11:00;98.13;;;47.55;;
25663;SDS011;13522;50.018;20.014;2023-03-01T03:14:14;84.58;;;46.50;;
25663;SDS011;13522;50.018;20.014;2023-03-01T03:17:28;93.00;;;47.50;;
25663;SDS011;13522;50.018;20.014;2023-03-01T03:20:40;96.28;;;49.90;;
25663;SDS011;13522;50.018;20.014;2023-03-01T03:23:55;94.95;;;48.43;;
25663;SDS011;13522;50.018;20.014;2023-03-01T03:27:07;97.33;;;49.80;;
25663;SDS011;13522;50.018;20.014;2023-03-01T03:30:20;92.15;;;46.73;;
25663;SDS011;13522;50.018;20.014;2023-03-01T03:33:33;92.83;;;48.10;;
25663;SDS011;13522;50.018;20.014;2023-03-01T03:36:45;92.72;;;46.40;;
25663;SDS011;13522;50.018;20.014;2023-03-01T03:40:00;93.68;;;49.03;;
25663;SDS011;13522;50.018;20.014;2023-03-01T03:43:16;89.63;;;46.75;;
25663;SDS011;13522;50.018;20.014;2023-03-01T03:46:30;89.33;;;45.18;;
25663;SDS011;13522;50.018;20.014;2023-03-01T03:49:42;90.63;;;44.75;;
25663;SDS011;13522;50.018;20.014;2023-03-01T03:52:53;86.80;;;45.83;;
25663;SDS011;13522;50.018;20.014;2023-03-01T03:56:06;87.98;;;45.23;;
25663;SDS011;13522;50.018;20.014;2023-03-01T03:59:18;91.70;;;45.83;;
25663;SDS011;13522;50.018;20.014;2023-03-01T04:02:31;75.75;;;41.95;;
25663;SDS011;13522;50.018;20.014;2023-03-01T04:05:43;74.60;;;40.63;;
25663;SDS011;13522;50.018;20.014;2023-03-01T04:08:56;80.53;;;43.50;;
25663;SDS011;13522;50.018;20.014;2023-03-01T04:12:10;84.13;;;44.15;;
25663;SDS011;13522;50.018;20.014;2023-03-01T04:15:25;85.80;;;45.40;;
25663;SDS011;13522;50.018;20.014;2023-03-01T04:18:37;86.58;;;45.28;;
25663;SDS011;13522;50.018;20.014;2023-03-01T04:21:49;86.45;;;44.50;;
25663;SDS011;13522;50.018;20.014;2023-03-01T04:25:01;85.15;;;45.20;;
25663;SDS011;13522;50.018;20.014;2023-03-01T04:28:16;88.95;;;45.28;;
25663;SDS011;13522;50.018;20.014;2023-03-01T04:31:28;95.25;;;46.05;;
25663;SDS011;13522;50.018;20.014;2023-03-01T04:34:41;88.93;;;45.13;;
25663;SDS011;13522;50.018;20.014;2023-03-01T04:37:53;93.08;;;44.73;;
25663;SDS011;13522;50.018;20.014;2023-03-01T04:41:06;87.25;;;44.95;;
25663;SDS011;13522;50.018;20.014;2023-03-01T04:44:19;81.73;;;44.23;;
25663;SDS011;13522;50.018;20.014;2023-03-01T04:47:31;76.30;;;42.03;;
25663;SDS011;13522;50.018;20.014;2023-03-01T04:50:43;80.08;;;43.23;;
25663;SDS011;13522;50.018;20.014;2023-03-01T04:53:55;78.98;;;41.73;;
25663;SDS011;13522;50.018;20.014;2023-03-01T04:57:07;81.53;;;43.78;;
25663;SDS011;13522;50.018;20.014;2023-03-01T05:00:20;87.78;;;47.48;;
25663;SDS011;13522;50.018;20.014;2023-03-01T05:03:34;91.93;;;46.80;;
25663;SDS011;13522;50.018;20.014;2023-03-01T05:06:46;89.95;;;47.10;;
25663;SDS011;13522;50.018;20.014;2023-03-01T05:10:03;95.25;;;46.70;;
25663;SDS011;13522;50.018;20.014;2023-03-01T05:13:18;89.35;;;47.75;;
25663;SDS011;13522;50.018;20.014;2023-03-01T05:16:33;91.35;;;46.65;;
25663;SDS011;13522;50.018;20.014;2023-03-01T05:19:45;90.00;;;45.98;;
25663;SDS011;13522;50.018;20.014;2023-03-01T05:22:59;84.48;;;45.80;;
25663;SDS011;13522;50.018;20.014;2023-03-01T05:26:12;87.00;;;47.05;;
25663;SDS011;13522;50.018;20.014;2023-03-01T05:29:30;95.18;;;49.30;;
25663;SDS011;13522;50.018;20.014;2023-03-01T05:32:43;93.97;;;46.75;;
25663;SDS011;13522;50.018;20.014;2023-03-01T05:36:00;94.38;;;46.70;;
25663;SDS011;13522;50.018;20.014;2023-03-01T05:39:14;84.63;;;44.63;;
25663;SDS011;13522;50.018;20.014;2023-03-01T05:42:26;88.70;;;45.43;;
25663;SDS011;13522;50.018;20.014;2023-03-01T05:45:38;85.53;;;46.05;;
25663;SDS011;13522;50.018;20.014;2023-03-01T05:48:51;88.45;;;45.80;;
25663;SDS011;13522;50.018;20.014;2023-03-01T05:52:04;88.13;;;46.00;;
25663;SDS011;13522;50.018;20.014;2023-03-01T05:55:17;85.43;;;44.40;;
25663;SDS011;13522;50.018;20.014;2023-03-01T05:58:32;89.03;;;47.85;;
25663;SDS011;13522;50.018;20.014;2023-03-01T06:01:45;88.28;;;45.15;;
25663;SDS011;13522;50.018;20.014;2023-03-01T06:04:57;86.60;;;45.90;;
25663;SDS011;13522;50.018;20.014;2023-03-01T06:08:10;89.78;;;47.30;;
25663;SDS011;13522;50.018;20.014;2023-03-01T06:11:24;84.85;;;46.93;;
25663;SDS011;13522;50.018;20.014;2023-03-01T06:14:36;106.58;;;46.98;;
25663;SDS011;13522;50.018;20.014;2023-03-01T06:17:48;90.08;;;46.58;;
25663;SDS011;13522;50.018;20.014;2023-03-01T06:21:04;185.38;;;90.90;;
25663;SDS011;13522;50.018;20.014;2023-03-01T06:24:17;99.58;;;53.48;;
25663;SDS011;13522;50.018;20.014;2023-03-01T06:27:30;89.30;;;48.75;;
25663;SDS011;13522;50.018;20.014;2023-03-01T06:30:42;90.85;;;47.20;;
25663;SDS011;13522;50.018;20.014;2023-03-01T06:33:54;90.63;;;47.70;;
25663;SDS011;13522;50.018;20.014;2023-03-01T06:37:07;90.35;;;48.68;;
25663;SDS011;13522;50.018;20.014;2023-03-01T06:40:19;88.80;;;49.58;;
25663;SDS011;13522;50.018;20.014;2023-03-01T06:43:32;94.20;;;48.60;;
25663;SDS011;13522;50.018;20.014;2023-03-01T06:46:43;96.20;;;51.08;;
25663;SDS011;13522;50.018;20.014;2023-03-01T06:49:56;164.18;;;79.45;;
25663;SDS011;13522;50.018;20.014;2023-03-01T06:53:08;92.68;;;51.45;;
25663;SDS011;13522;50.018;20.014;2023-03-01T06:56:20;92.43;;;48.58;;
25663;SDS011;13522;50.018;20.014;2023-03-01T06:59:32;90.48;;;49.50;;
25663;SDS011;13522;50.018;20.014;2023-03-01T07:02:44;95.75;;;50.68;;
25663;SDS011;13522;50.018;20.014;2023-03-01T07:05:57;95.18;;;51.03;;
25663;SDS011;13522;50.018;20.014;2023-03-01T07:09:09;94.18;;;50.23;;
25663;SDS011;13522;50.018;20.014;2023-03-01T07:12:22;90.38;;;49.98;;
25663;SDS011;13522;50.018;20.014;2023-03-01T07:15:35;87.63;;;50.33;;
25663;SDS011;13522;50.018;20.014;2023-03-01T07:18:48;94.98;;;50.08;;
25663;SDS011;13522;50.018;20.014;2023-03-01T07:22:02;82.08;;;48.50;;
25663;SDS011;13522;50.018;20.014;2023-03-01T07:25:15;86.83;;;50.85;;
25663;SDS011;13522;50.018;20.014;2023-03-01T07:28:28;84.83;;;52.13;;
25663;SDS011;13522;50.018;20.014;2023-03-01T07:31:42;98.48;;;54.50;;
25663;SDS011;13522;50.018;20.014;2023-03-01T07:34:55;136.15;;;79.85;;
25663;SDS011;13522;50.018;20.014;2023-03-01T07:38:07;163.15;;;93.53;;
25663;SDS011;13522;50.018;20.014;2023-03-01T07:41:19;257.58;;;143.13;;
25663;SDS011;13522;50.018;20.014;2023-03-01T07:44:31;93.48;;;57.03;;
25663;SDS011;13522;50.018;20.014;2023-03-01T07:47:44;83.93;;;49.85;;
25663;SDS011;13522;50.018;20.014;2023-03-01T07:50:58;88.20;;;52.78;;
25663;SDS011;13522;50.018;20.014;2023-03-01T07:54:12;85.38;;;50.03;;
25663;SDS011;13522;50.018;20.014;2023-03-01T07:57:24;91.60;;;52.43;;
25663;SDS011;13522;50.018;20.014;2023-03-01T08:00:37;86.75;;;52.60;;
25663;SDS011;13522;50.018;20.014;2023-03-01T08:03:49;104.00;;;53.83;;
25663;SDS011;13522;50.018;20.014;2023-03-01T08:07:01;210.90;;;104.55;;
25663;SDS011;13522;50.018;20.014;2023-03-01T08:10:14;163.33;;;69.18;;
25663;SDS011;13522;50.018;20.014;2023-03-01T08:13:27;135.45;;;61.63;;
25663;SDS011;13522;50.018;20.014;2023-03-01T08:16:40;141.13;;;59.85;;
25663;SDS011;13522;50.018;20.014;2023-03-01T08:19:52;113.63;;;55.90;;
25663;SDS011;13522;50.018;20.014;2023-03-01T08:23:05;124.98;;;57.10;;
25663;SDS011;13522;50.018;20.014;2023-03-01T08:26:18;98.88;;;51.80;;
25663;SDS011;13522;50.018;20.014;2023-03-01T08:29:31;107.80;;;52.73;;
25663;SDS011;13522;50.018;20.014;2023-03-01T08:32:43;139.23;;;71.78;;
25663;SDS011;13522;50.018;20.014;2023-03-01T08:36:03;113.95;;;66.10;;
25663;SDS011;13522;50.018;20.014;2023-03-01T08:39:16;124.33;;;64.40;;
25663;SDS011;13522;50.018;20.014;2023-03-01T08:42:30;92.05;;;49.58;;
25663;SDS011;13522;50.018;20.014;2023-03-01T08:45:42;86.28;;;46.95;;
25663;SDS011;13522;50.018;20.014;2023-03-01T08:48:56;88.38;;;48.13;;
25663;SDS011;13522;50.018;20.014;2023-03-01T08:52:08;100.10;;;51.45;;
25663;SDS011;13522;50.018;20.014;2023-03-01T08:55:20;89.10;;;48.65;;
25663;SDS011;13522;50.018;20.014;2023-03-01T08:58:32;81.13;;;43.65;;
25663;SDS011;13522;50.018;20.014;2023-03-01T09:01:45;69.25;;;41.10;;
25663;SDS011;13522;50.018;20.014;2023-03-01T09:04:57;86.05;;;44.98;;
25663;SDS011;13522;50.018;20.014;2023-03-01T09:08:09;76.05;;;42.30;;
25663;SDS011;13522;50.018;20.014;2023-03-01T09:11:21;98.30;;;55.95;;
25663;SDS011;13522;50.018;20.014;2023-03-01T09:14:34;66.35;;;38.30;;
25663;SDS011;13522;50.018;20.014;2023-03-01T09:17:47;56.98;;;34.23;;
25663;SDS011;13522;50.018;20.014;2023-03-01T09:21:02;45.40;;;27.55;;
25663;SDS011;13522;50.018;20.014;2023-03-01T09:24:16;52.50;;;30.90;;
25663;SDS011;13522;50.018;20.014;2023-03-01T09:27:29;55.98;;;29.10;;
25663;SDS011;13522;50.018;20.014;2023-03-01T09:30:42;46.40;;;24.80;;
25663;SDS011;13522;50.018;20.014;2023-03-01T09:33:54;51.70;;;27.90;;
25663;SDS011;13522;50.018;20.014;2023-03-01T09:37:06;50.50;;;28.98;;
25663;SDS011;13522;50.018;20.014;2023-03-01T09:40:20;51.85;;;29.23;;
25663;SDS011;13522;50.018;20.014;2023-03-01T09:43:41;55.05;;;29.55;;
25663;SDS011;13522;50.018;20.014;2023-03-01T09:46:58;51.43;;;28.95;;
25663;SDS011;13522;50.018;20.014;2023-03-01T09:50:13;51.60;;;28.08;;
25663;SDS011;13522;50.018;20.014;2023-03-01T09:53:30;45.50;;;26.53;;
25663;SDS011;13522;50.018;20.014;2023-03-01T09:56:45;33.33;;;21.90;;
25663;SDS011;13522;50.018;20.014;2023-03-01T10:00:26;31.53;;;19.20;;
25663;SDS011;13522;50.018;20.014;2023-03-01T10:03:50;52.35;;;29.48;;
25663;SDS011;13522;50.018;20.014;2023-03-01T10:07:16;58.18;;;32.33;;
25663;SDS011;13522;50.018;20.014;2023-03-01T10:10:38;43.65;;;24.45;;
25663;SDS011;13522;50.018;20.014;2023-03-01T10:13:56;37.65;;;24.25;;
25663;SDS011;13522;50.018;20.014;2023-03-01T10:17:16;41.63;;;24.18;;
25663;SDS011;13522;50.018;20.014;2023-03-01T10:20:36;37.38;;;23.35;;
25663;SDS011;13522;50.018;20.014;2023-03-01T10:23:54;42.85;;;24.63;;
25663;SDS011;13522;50.018;20.014;2023-03-01T10:27:13;42.53;;;23.65;;
25663;SDS011;13522;50.018;20.014;2023-03-01T10:30:32;31.73;;;19.95;;
25663;SDS011;13522;50.018;20.014;2023-03-01T10:33:48;31.38;;;20.03;;
25663;SDS011;13522;50.018;20.014;2023-03-01T10:37:08;79.78;;;49.00;;
25663;SDS011;13522;50.018;20.014;2023-03-01T10:40:25;42.43;;;25.83;;
25663;SDS011;13522;50.018;20.014;2023-03-01T10:43:43;24.40;;;15.35;;
25663;SDS011;13522;50.018;20.014;2023-03-01T10:47:00;28.83;;;18.03;;
25663;SDS011;13522;50.018;20.014;2023-03-01T10:50:19;33.23;;;19.28;;
25663;SDS011;13522;50.018;20.014;2023-03-01T10:53:33;34.65;;;20.68;;
25663;SDS011;13522;50.018;20.014;2023-03-01T10:56:49;43.30;;;24.57;;
25663;SDS011;13522;50.018;20.014;2023-03-01T11:00:17;41.85;;;25.90;;
25663;SDS011;13522;50.018;20.014;2023-03-01T11:03:37;42.38;;;25.35;;
25663;SDS011;13522;50.018;20.014;2023-03-01T11:06:57;47.20;;;27.25;;
25663;SDS011;13522;50.018;20.014;2023-03-01T11:10:15;50.18;;;28.28;;
25663;SDS011;13522;50.018;20.014;2023-03-01T11:13:30;43.78;;;26.05;;
25663;SDS011;13522;50.018;20.014;2023-03-01T11:16:43;45.73;;;27.80;;
25663;SDS011;13522;50.018;20.014;2023-03-01T11:20:05;48.88;;;27.75;;
25663;SDS011;13522;50.018;20.014;2023-03-01T11:23:26;39.95;;;25.95;;
25663;SDS011;13522;50.018;20.014;2023-03-01T11:26:41;37.63;;;22.85;;
25663;SDS011;13522;50.018;20.014;2023-03-01T11:29:59;42.70;;;25.98;;
25663;SDS011;13522;50.018;20.014;2023-03-01T11:33:17;48.05;;;27.18;;
25663;SDS011;13522;50.018;20.014;2023-03-01T11:36:39;64.08;;;32.03;;
25663;SDS011;13522;50.018;20.014;2023-03-01T11:39:55;155.80;;;76.93;;
25663;SDS011;13522;50.018;20.014;2023-03-01T11:43:26;48.03;;;27.43;;
25663;SDS011;13522;50.018;20.014;2023-03-01T11:50:34;39.83;;;23.83;;
25663;SDS011;13522;50.018;20.014;2023-03-01T11:54:03;40.10;;;23.95;;
25663;SDS011;13522;50.018;20.014;2023-03-01T11:57:31;39.33;;;24.80;;
25663;SDS011;13522;50.018;20.014;2023-03-01T12:04:43;47.65;;;29.68;;
25663;SDS011;13522;50.018;20.014;2023-03-01T12:08:25;35.55;;;22.40;;
25663;SDS011;13522;50.018;20.014;2023-03-01T12:11:50;44.48;;;24.20;;
25663;SDS011;13522;50.018;20.014;2023-03-01T12:15:24;40.70;;;22.33;;
25663;SDS011;13522;50.018;20.014;2023-03-01T12:22:56;38.35;;;22.48;;
25663;SDS011;13522;50.018;20.014;2023-03-01T12:26:40;38.40;;;22.55;;
25663;SDS011;13522;50.018;20.014;2023-03-01T12:29:59;35.18;;;22.38;;
25663;SDS011;13522;50.018;20.014;2023-03-01T12:33:25;36.93;;;23.35;;
25663;SDS011;13522;50.018;20.014;2023-03-01T12:36:46;36.18;;;21.85;;
25663;SDS011;13522;50.018;20.014;2023-03-01T12:40:17;40.65;;;23.25;;
25663;SDS011;13522;50.018;20.014;2023-03-01T12:43:54;40.35;;;23.28;;
25663;SDS011;13522;50.018;20.014;2023-03-01T12:47:18;42.55;;;24.70;;
25663;SDS011;13522;50.018;20.014;2023-03-01T12:50:44;44.60;;;24.98;;
25663;SDS011;13522;50.018;20.014;2023-03-01T12:54:01;41.00;;;24.53;;
25663;SDS011;13522;50.018;20.014;2023-03-01T12:57:22;37.05;;;22.83;;
25663;SDS011;13522;50.018;20.014;2023-03-01T13:00:44;37.80;;;23.02;;
25663;SDS011;13522;50.018;20.014;2023-03-01T13:07:48;36.65;;;22.90;;
25663;SDS011;13522;50.018;20.014;2023-03-01T13:11:04;41.00;;;24.00;;
25663;SDS011;13522;50.018;20.014;2023-03-01T13:14:36;39.13;;;23.18;;
25663;SDS011;13522;50.018;20.014;2023-03-01T13:17:55;36.63;;;22.45;;
25663;SDS011;13522;50.018;20.014;2023-03-01T13:21:09;36.83;;;22.43;;
25663;SDS011;13522;50.018;20.014;2023-03-01T13:24:25;35.93;;;21.33;;
25663;SDS011;13522;50.018;20.014;2023-03-01T13:27:42;33.30;;;19.28;;
25663;SDS011;13522;50.018;20.014;2023-03-01T13:30:55;35.78;;;19.65;;
25663;SDS011;13522;50.018;20.014;2023-03-01T13:34:08;31.98;;;17.95;;
25663;SDS011;13522;50.018;20.014;2023-03-01T13:41:50;32.85;;;16.95;;
25663;SDS011;13522;50.018;20.014;2023-03-01T13:45:05;24.95;;;14.90;;
25663;SDS011;13522;50.018;20.014;2023-03-01T13:48:44;27.53;;;16.23;;
25663;SDS011;13522;50.018;20.014;2023-03-01T13:52:00;28.13;;;16.20;;
25663;SDS011;13522;50.018;20.014;2023-03-01T13:55:23;22.03;;;14.00;;
25663;SDS011;13522;50.018;20.014;2023-03-01T14:02:12;30.88;;;18.05;;
25663;SDS011;13522;50.018;20.014;2023-03-01T14:05:25;30.10;;;17.48;;
25663;SDS011;13522;50.018;20.014;2023-03-01T14:08:39;29.75;;;16.98;;
25663;SDS011;13522;50.018;20.014;2023-03-01T14:11:59;30.73;;;16.10;;
25663;SDS011;13522;50.018;20.014;2023-03-01T14:15:31;24.10;;;14.83;;
25663;SDS011;13522;50.018;20.014;2023-03-01T14:22:04;26.90;;;15.30;;
25663;SDS011;13522;50.018;20.014;2023-03-01T14:25:26;28.90;;;14.55;;
25663;SDS011;13522;50.018;20.014;2023-03-01T14:28:39;27.18;;;15.40;;
25663;SDS011;13522;50.018;20.014;2023-03-01T14:31:54;25.50;;;16.15;;
25663;SDS011;13522;50.018;20.014;2023-03-01T14:35:20;24.53;;;15.35;;
25663;SDS011;13522;50.018;20.014;2023-03-01T14:38:36;24.38;;;14.33;;
25663;SDS011;13522;50.018;20.014;2023-03-01T14:41:51;24.93;;;15.38;;
25663;SDS011;13522;50.018;20.014;2023-03-01T14:45:06;45.23;;;21.55;;
25663;SDS011;13522;50.018;20.014;2023-03-01T14:48:22;54.80;;;29.63;;
25663;SDS011;13522;50.018;20.014;2023-03-01T14:51:38;25.95;;;15.58;;
25663;SDS011;13522;50.018;20.014;2023-03-01T14:54:54;23.60;;;14.00;;
25663;SDS011;13522;50.018;20.014;2023-03-01T14:58:09;25.80;;;14.65;;
25663;SDS011;13522;50.018;20.014;2023-03-01T15:01:26;24.60;;;14.08;;
25663;SDS011;13522;50.018;20.014;2023-03-01T15:04:38;23.40;;;13.90;;
25663;SDS011;13522;50.018;20.014;2023-03-01T15:07:51;24.98;;;13.75;;
25663;SDS011;13522;50.018;20.014;2023-03-01T15:11:15;32.85;;;14.85;;
25663;SDS011;13522;50.018;20.014;2023-03-01T15:14:38;29.70;;;14.40;;
25663;SDS011;13522;50.018;20.014;2023-03-01T15:17:55;23.70;;;14.38;;
25663;SDS011;13522;50.018;20.014;2023-03-01T15:21:13;27.93;;;15.30;;
25663;SDS011;13522;50.018;20.014;2023-03-01T15:24:29;27.08;;;14.58;;
25663;SDS011;13522;50.018;20.014;2023-03-01T15:27:41;32.95;;;16.55;;
25663;SDS011;13522;50.018;20.014;2023-03-01T15:37:40;32.20;;;17.53;;
25663;SDS011;13522;50.018;20.014;2023-03-01T15:40:58;30.70;;;17.35;;
25663;SDS011;13522;50.018;20.014;2023-03-01T15:44:16;28.90;;;16.88;;
25663;SDS011;13522;50.018;20.014;2023-03-01T15:47:40;27.73;;;17.03;;
25663;SDS011;13522;50.018;20.014;2023-03-01T15:50:57;29.75;;;18.20;;
25663;SDS011;13522;50.018;20.014;2023-03-01T15:54:13;30.45;;;17.60;;
25663;SDS011;13522;50.018;20.014;2023-03-01T16:00:37;30.33;;;17.45;;
25663;SDS011;13522;50.018;20.014;2023-03-01T16:03:53;32.33;;;18.28;;
25663;SDS011;13522;50.018;20.014;2023-03-01T16:07:06;31.23;;;18.45;;
25663;SDS011;13522;50.018;20.014;2023-03-01T16:10:19;33.85;;;19.53;;
25663;SDS011;13522;50.018;20.014;2023-03-01T16:13:32;29.70;;;17.35;;
25663;SDS011;13522;50.018;20.014;2023-03-01T16:16:44;33.78;;;18.18;;
25663;SDS011;13522;50.018;20.014;2023-03-01T16:19:57;32.65;;;18.68;;
25663;SDS011;13522;50.018;20.014;2023-03-01T16:23:10;30.58;;;18.20;;
25663;SDS011;13522;50.018;20.014;2023-03-01T16:26:22;36.00;;;18.93;;
25663;SDS011;13522;50.018;20.014;2023-03-01T16:29:35;32.95;;;18.43;;
25663;SDS011;13522;50.018;20.014;2023-03-01T16:32:47;37.98;;;18.05;;
25663;SDS011;13522;50.018;20.014;2023-03-01T16:36:05;32.05;;;17.68;;
25663;SDS011;13522;50.018;20.014;2023-03-01T16:39:20;36.13;;;18.33;;
25663;SDS011;13522;50.018;20.014;2023-03-01T16:42:34;34.43;;;17.73;;
25663;SDS011;13522;50.018;20.014;2023-03-01T16:45:47;35.78;;;18.95;;
25663;SDS011;13522;50.018;20.014;2023-03-01T16:48:59;38.98;;;18.83;;
25663;SDS011;13522;50.018;20.014;2023-03-01T16:52:11;33.43;;;17.58;;
25663;SDS011;13522;50.018;20.014;2023-03-01T16:55:23;32.08;;;18.13;;
25663;SDS011;13522;50.018;20.014;2023-03-01T16:58:36;34.03;;;18.55;;
25663;SDS011;13522;50.018;20.014;2023-03-01T17:01:49;40.45;;;18.38;;
25663;SDS011;13522;50.018;20.014;2023-03-01T17:05:02;34.63;;;18.73;;
25663;SDS011;13522;50.018;20.014;2023-03-01T17:08:16;40.90;;;19.28;;
25663;SDS011;13522;50.018;20.014;2023-03-01T17:11:28;39.10;;;18.50;;
25663;SDS011;13522;50.018;20.014;2023-03-01T17:14:40;38.18;;;18.43;;
25663;SDS011;13522;50.018;20.014;2023-03-01T17:17:54;36.80;;;18.23;;
25663;SDS011;13522;50.018;20.014;2023-03-01T17:21:07;39.20;;;17.28;;
25663;SDS011;13522;50.018;20.014;2023-03-01T17:24:20;35.85;;;18.15;;
25663;SDS011;13522;50.018;20.014;2023-03-01T17:27:33;40.85;;;18.38;;
25663;SDS011;13522;50.018;20.014;2023-03-01T17:30:46;39.33;;;18.98;;
25663;SDS011;13522;50.018;20.014;2023-03-01T17:33:58;31.85;;;18.60;;
25663;SDS011;13522;50.018;20.014;2023-03-01T17:37:11;43.45;;;20.80;;
25663;SDS011;13522;50.018;20.014;2023-03-01T17:40:24;41.85;;;21.08;;
25663;SDS011;13522;50.018;20.014;2023-03-01T17:43:36;41.55;;;20.88;;
25663;SDS011;13522;50.018;20.014;2023-03-01T17:46:48;42.43;;;23.38;;
25663;SDS011;13522;50.018;20.014;2023-03-01T18:05:16;47.78;;;24.10;;
25663;SDS011;13522;50.018;20.014;2023-03-01T18:26:52;75.33;;;35.50;;
25663;SDS011;13522;50.018;20.014;2023-03-01T18:30:05;69.40;;;34.28;;
25663;SDS011;13522;50.018;20.014;2023-03-01T18:33:21;71.95;;;33.05;;
25663;SDS011;13522;50.018;20.014;2023-03-01T18:36:34;66.58;;;33.43;;
25663;SDS011;13522;50.018;20.014;2023-03-01T18:39:50;71.65;;;34.68;;
25663;SDS011;13522;50.018;20.014;2023-03-01T18:43:03;72.38;;;35.58;;
25663;SDS011;13522;50.018;20.014;2023-03-01T18:46:15;80.53;;;38.05;;
25663;SDS011;13522;50.018;20.014;2023-03-01T18:49:28;86.70;;;42.55;;
25663;SDS011;13522;50.018;20.014;2023-03-01T18:52:41;87.93;;;43.73;;
25663;SDS011;13522;50.018;20.014;2023-03-01T18:55:58;96.33;;;45.65;;
25663;SDS011;13522;50.018;20.014;2023-03-01T18:59:10;91.00;;;45.53;;
25663;SDS011;13522;50.018;20.014;2023-03-01T19:02:22;89.58;;;43.30;;
25663;SDS011;13522;50.018;20.014;2023-03-01T19:05:36;91.25;;;43.38;;
25663;SDS011;13522;50.018;20.014;2023-03-01T19:08:52;92.28;;;43.60;;
25663;SDS011;13522;50.018;20.014;2023-03-01T19:12:05;94.30;;;43.73;;
25663;SDS011;13522;50.018;20.014;2023-03-01T19:15:18;89.93;;;42.35;;
25663;SDS011;13522;50.018;20.014;2023-03-01T19:18:31;84.30;;;40.93;;
25663;SDS011;13522;50.018;20.014;2023-03-01T19:21:44;81.10;;;39.98;;
25663;SDS011;13522;50.018;20.014;2023-03-01T19:24:58;83.90;;;41.23;;
25663;SDS011;13522;50.018;20.014;2023-03-01T19:28:11;87.05;;;42.70;;
25663;SDS011;13522;50.018;20.014;2023-03-01T19:31:23;82.85;;;41.95;;
25663;SDS011;13522;50.018;20.014;2023-03-01T19:34:39;79.50;;;40.33;;
25663;SDS011;13522;50.018;20.014;2023-03-01T19:38:12;77.53;;;37.98;;
25663;SDS011;13522;50.018;20.014;2023-03-01T19:41:24;73.18;;;36.63;;
25663;SDS011;13522;50.018;20.014;2023-03-01T19:44:37;74.55;;;36.83;;
25663;SDS011;13522;50.018;20.014;2023-03-01T19:47:51;77.20;;;37.58;;
25663;SDS011;13522;50.018;20.014;2023-03-01T19:51:04;70.20;;;37.20;;
25663;SDS011;13522;50.018;20.014;2023-03-01T19:57:55;69.38;;;36.73;;
25663;SDS011;13522;50.018;20.014;2023-03-01T20:01:16;80.73;;;38.40;;
25663;SDS011;13522;50.018;20.014;2023-03-01T20:04:32;77.83;;;36.95;;
25663;SDS011;13522;50.018;20.014;2023-03-01T20:07:44;74.58;;;37.23;;